sensor_id;sensor_type;location;lat;lon;timestamp;temperature;humidity
24049;DHT22;12250;50.956;4.746;2023-02-22T00:00:40;6.90;99.90
24049;DHT22;12250;50.956;4.746;2023-02-22T00:05:44;6.90;99.90
24049;DHT22;12250;50.956;4.746;2023-02-22T00:08:15;6.90;99.90
24049;DHT22;12250;50.956;4.746;2023-02-22T00:10:42;6.90;99.90
24049;DHT22;12250;50.956;4.746;2023-02-22T00:13:10;6.90;99.90
24049;DHT22;12250;50.956;4.746;2023-02-22T00:15:38;6.90;99.90
24049;DHT22;12250;50.956;4.746;2023-02-22T00:18:11;6.90;99.90
24049;DHT22;12250;50.956;4.746;2023-02-22T00:20:38;6.90;99.90
24049;DHT22;12250;50.956;4.746;2023-02-22T00:23:06;7.00;99.90
24049;DHT22;12250;50.956;4.746;2023-02-22T00:25:34;6.90;99.90
24049;DHT22;12250;50.956;4.746;2023-02-22T00:28:00;7.00;99.90
24049;DHT22;12250;50.956;4.746;2023-02-22T00:30:28;7.00;99.90
24049;DHT22;12250;50.956;4.746;2023-02-22T00:32:55;7.00;99.90
24049;DHT22;12250;50.956;4.746;2023-02-22T00:35:24;7.10;99.90
24049;DHT22;12250;50.956;4.746;2023-02-22T00:37:53;7.00;99.90
24049;DHT22;12250;50.956;4.746;2023-02-22T00:40:22;7.00;99.90
24049;DHT22;12250;50.956;4.746;2023-02-22T00:42:48;7.00;99.90
24049;DHT22;12250;50.956;4.746;2023-02-22T00:45:20;6.90;99.90
24049;DHT22;12250;50.956;4.746;2023-02-22T00:47:46;6.90;99.90
24049;DHT22;12250;50.956;4.746;2023-02-22T00:50:12;6.80;99.90
24049;DHT22;12250;50.956;4.746;2023-02-22T00:52:38;6.80;99.90
24049;DHT22;12250;50.956;4.746;2023-02-22T00:55:07;6.90;99.90
24049;DHT22;12250;50.956;4.746;2023-02-22T00:57:33;6.80;99.90
24049;DHT22;12250;50.956;4.746;2023-02-22T01:00:00;6.80;99.90
24049;DHT22;12250;50.956;4.746;2023-02-22T01:02:37;6.80;99.90
24049;DHT22;12250;50.956;4.746;2023-02-22T01:05:08;6.80;99.90
24049;DHT22;12250;50.956;4.746;2023-02-22T01:07:34;6.80;99.90
24049;DHT22;12250;50.956;4.746;2023-02-22T01:10:01;6.80;99.90
24049;DHT22;12250;50.956;4.746;2023-02-22T01:12:27;6.80;99.90
24049;DHT22;12250;50.956;4.746;2023-02-22T01:14:53;6.80;99.90
24049;DHT22;12250;50.956;4.746;2023-02-22T01:17:22;6.80;99.90
24049;DHT22;12250;50.956;4.746;2023-02-22T01:19:53;6.80;99.90
24049;DHT22;12250;50.956;4.746;2023-02-22T01:22:19;6.80;99.90
24049;DHT22;12250;50.956;4.746;2023-02-22T01:24:50;6.70;99.90
24049;DHT22;12250;50.956;4.746;2023-02-22T01:27:17;6.70;99.90
24049;DHT22;12250;50.956;4.746;2023-02-22T01:29:43;6.70;99.90
24049;DHT22;12250;50.956;4.746;2023-02-22T01:32:09;6.60;99.90
24049;DHT22;12250;50.956;4.746;2023-02-22T01:34:37;6.60;99.90
24049;DHT22;12250;50.956;4.746;2023-02-22T01:37:03;6.50;99.90
24049;DHT22;12250;50.956;4.746;2023-02-22T01:39:28;6.50;99.90
24049;DHT22;12250;50.956;4.746;2023-02-22T01:41:54;6.50;99.90
24049;DHT22;12250;50.956;4.746;2023-02-22T01:44:30;6.30;99.90
24049;DHT22;12250;50.956;4.746;2023-02-22T01:46:58;6.30;99.90
24049;DHT22;12250;50.956;4.746;2023-02-22T01:49:26;6.30;99.90
24049;DHT22;12250;50.956;4.746;2023-02-22T01:51:56;6.30;99.90
24049;DHT22;12250;50.956;4.746;2023-02-22T01:57:22;6.40;99.90
24049;DHT22;12250;50.956;4.746;2023-02-22T01:59:53;6.30;99.90
24049;DHT22;12250;50.956;4.746;2023-02-22T02:02:21;6.30;99.90
24049;DHT22;12250;50.956;4.746;2023-02-22T02:04:50;6.20;99.90
24049;DHT22;12250;50.956;4.746;2023-02-22T02:07:19;6.30;99.90
24049;DHT22;12250;50.956;4.746;2023-02-22T02:09:59;6.30;99.90
24049;DHT22;12250;50.956;4.746;2023-02-22T02:12:27;6.30;99.90
24049;DHT22;12250;50.956;4.746;2023-02-22T02:15:18;6.30;99.90
24049;DHT22;12250;50.956;4.746;2023-02-22T02:17:44;6.20;99.90
24049;DHT22;12250;50.956;4.746;2023-02-22T02:34:25;6.20;99.90
24049;DHT22;12250;50.956;4.746;2023-02-22T02:39:53;6.00;99.90
24049;DHT22;12250;50.956;4.746;2023-02-22T02:42:25;5.90;99.90
24049;DHT22;12250;50.956;4.746;2023-02-22T02:44:58;5.90;99.90
24049;DHT22;12250;50.956;4.746;2023-02-22T02:47:29;5.90;99.90
24049;DHT22;12250;50.956;4.746;2023-02-22T02:50:09;5.90;99.90
24049;DHT22;12250;50.956;4.746;2023-02-22T02:52:37;5.90;99.90
24049;DHT22;12250;50.956;4.746;2023-02-22T02:55:04;5.90;99.90
24049;DHT22;12250;50.956;4.746;2023-02-22T02:57:31;6.00;99.90
24049;DHT22;12250;50.956;4.746;2023-02-22T02:59:56;5.90;99.90
24049;DHT22;12250;50.956;4.746;2023-02-22T03:02:46;5.90;99.90
24049;DHT22;12250;50.956;4.746;2023-02-22T03:08:26;5.80;99.90
24049;DHT22;12250;50.956;4.746;2023-02-22T03:11:07;5.80;99.90
24049;DHT22;12250;50.956;4.746;2023-02-22T03:19:10;5.60;99.90
24049;DHT22;12250;50.956;4.746;2023-02-22T03:24:30;5.50;99.90
24049;DHT22;12250;50.956;4.746;2023-02-22T03:29:48;5.40;99.90
24049;DHT22;12250;50.956;4.746;2023-02-22T03:32:22;5.50;99.90
24049;DHT22;12250;50.956;4.746;2023-02-22T03:34:58;5.40;99.90
24049;DHT22;12250;50.956;4.746;2023-02-22T03:37:34;5.30;99.90
24049;DHT22;12250;50.956;4.746;2023-02-22T03:40:04;5.20;99.90
24049;DHT22;12250;50.956;4.746;2023-02-22T03:42:50;5.20;99.90
24049;DHT22;12250;50.956;4.746;2023-02-22T03:45:19;5.10;99.90
24049;DHT22;12250;50.956;4.746;2023-02-22T03:47:49;5.20;99.90
24049;DHT22;12250;50.956;4.746;2023-02-22T03:50:20;5.10;99.90
24049;DHT22;12250;50.956;4.746;2023-02-22T03:52:47;5.20;99.90
24049;DHT22;12250;50.956;4.746;2023-02-22T03:55:14;5.20;99.90
24049;DHT22;12250;50.956;4.746;2023-02-22T03:57:45;5.20;99.90
24049;DHT22;12250;50.956;4.746;2023-02-22T04:00:13;5.20;99.90
24049;DHT22;12250;50.956;4.746;2023-02-22T04:02:40;5.20;99.90
24049;DHT22;12250;50.956;4.746;2023-02-22T04:05:06;5.20;99.90
24049;DHT22;12250;50.956;4.746;2023-02-22T04:07:32;5.30;99.90
24049;DHT22;12250;50.956;4.746;2023-02-22T04:09:58;5.20;99.90
24049;DHT22;12250;50.956;4.746;2023-02-22T04:12:23;5.20;99.90
24049;DHT22;12250;50.956;4.746;2023-02-22T04:14:49;5.20;99.90
24049;DHT22;12250;50.956;4.746;2023-02-22T04:17:14;5.20;99.90
24049;DHT22;12250;50.956;4.746;2023-02-22T04:19:40;5.10;99.90
24049;DHT22;12250;50.956;4.746;2023-02-22T04:22:06;5.10;99.90
24049;DHT22;12250;50.956;4.746;2023-02-22T04:24:31;5.10;99.90
24049;DHT22;12250;50.956;4.746;2023-02-22T04:26:57;5.10;99.90
24049;DHT22;12250;50.956;4.746;2023-02-22T04:29:23;5.10;99.90
24049;DHT22;12250;50.956;4.746;2023-02-22T04:31:48;5.10;99.90
24049;DHT22;12250;50.956;4.746;2023-02-22T04:34:14;5.10;99.90
24049;DHT22;12250;50.956;4.746;2023-02-22T04:36:40;5.00;99.90
24049;DHT22;12250;50.956;4.746;2023-02-22T04:39:08;5.00;99.90
24049;DHT22;12250;50.956;4.746;2023-02-22T04:41:34;5.00;99.90
24049;DHT22;12250;50.956;4.746;2023-02-22T04:44:00;5.00;99.90
24049;DHT22;12250;50.956;4.746;2023-02-22T04:46:25;4.90;99.90
24049;DHT22;12250;50.956;4.746;2023-02-22T04:48:52;4.90;99.90
24049;DHT22;12250;50.956;4.746;2023-02-22T04:51:18;4.90;99.90
24049;DHT22;12250;50.956;4.746;2023-02-22T04:53:44;4.90;99.90
24049;DHT22;12250;50.956;4.746;2023-02-22T04:56:10;4.80;99.90
24049;DHT22;12250;50.956;4.746;2023-02-22T04:58:36;4.70;99.90
24049;DHT22;12250;50.956;4.746;2023-02-22T05:01:02;4.70;99.90
24049;DHT22;12250;50.956;4.746;2023-02-22T05:03:28;4.70;99.90
24049;DHT22;12250;50.956;4.746;2023-02-22T05:05:54;4.70;99.90
24049;DHT22;12250;50.956;4.746;2023-02-22T05:08:20;4.70;99.90
24049;DHT22;12250;50.956;4.746;2023-02-22T05:10:45;4.70;99.90
24049;DHT22;12250;50.956;4.746;2023-02-22T05:13:11;4.70;99.90
24049;DHT22;12250;50.956;4.746;2023-02-22T05:15:36;4.70;99.90
24049;DHT22;12250;50.956;4.746;2023-02-22T05:18:02;4.70;99.90
24049;DHT22;12250;50.956;4.746;2023-02-22T05:20:30;4.70;99.90
24049;DHT22;12250;50.956;4.746;2023-02-22T05:22:57;4.70;99.90
24049;DHT22;12250;50.956;4.746;2023-02-22T05:25:24;4.70;99.90
24049;DHT22;12250;50.956;4.746;2023-02-22T05:27:52;4.80;99.90
24049;DHT22;12250;50.956;4.746;2023-02-22T05:30:20;4.70;99.90
24049;DHT22;12250;50.956;4.746;2023-02-22T05:32:47;4.80;99.90
24049;DHT22;12250;50.956;4.746;2023-02-22T05:35:13;4.70;99.90
24049;DHT22;12250;50.956;4.746;2023-02-22T05:37:39;4.80;99.90
24049;DHT22;12250;50.956;4.746;2023-02-22T05:40:05;4.80;99.90
24049;DHT22;12250;50.956;4.746;2023-02-22T05:42:32;4.70;99.90
24049;DHT22;12250;50.956;4.746;2023-02-22T05:44:58;4.70;99.90
24049;DHT22;12250;50.956;4.746;2023-02-22T05:47:25;4.70;99.90
24049;DHT22;12250;50.956;4.746;2023-02-22T05:49:50;4.70;99.90
24049;DHT22;12250;50.956;4.746;2023-02-22T05:52:16;4.60;99.90
24049;DHT22;12250;50.956;4.746;2023-02-22T05:54:42;4.60;99.90
24049;DHT22;12250;50.956;4.746;2023-02-22T05:57:07;4.50;99.90
24049;DHT22;12250;50.956;4.746;2023-02-22T05:59:33;4.40;99.90
24049;DHT22;12250;50.956;4.746;2023-02-22T06:01:59;4.30;99.90
24049;DHT22;12250;50.956;4.746;2023-02-22T06:04:24;4.20;99.90
24049;DHT22;12250;50.956;4.746;2023-02-22T06:06:50;4.10;99.90
24049;DHT22;12250;50.956;4.746;2023-02-22T06:09:16;4.00;99.90
24049;DHT22;12250;50.956;4.746;2023-02-22T06:11:42;4.00;99.90
24049;DHT22;12250;50.956;4.746;2023-02-22T06:14:07;3.90;99.90
24049;DHT22;12250;50.956;4.746;2023-02-22T06:16:33;3.90;99.90
24049;DHT22;12250;50.956;4.746;2023-02-22T06:18:58;3.90;99.90
24049;DHT22;12250;50.956;4.746;2023-02-22T06:21:25;3.90;99.90
24049;DHT22;12250;50.956;4.746;2023-02-22T06:23:51;3.90;99.90
24049;DHT22;12250;50.956;4.746;2023-02-22T06:26:18;3.90;99.90
24049;DHT22;12250;50.956;4.746;2023-02-22T06:28:45;3.90;99.90
24049;DHT22;12250;50.956;4.746;2023-02-22T06:31:10;4.00;99.90
24049;DHT22;12250;50.956;4.746;2023-02-22T06:33:36;4.00;99.90
24049;DHT22;12250;50.956;4.746;2023-02-22T06:36:02;4.00;99.90
24049;DHT22;12250;50.956;4.746;2023-02-22T06:38:28;4.00;99.90
24049;DHT22;12250;50.956;4.746;2023-02-22T06:40:54;4.10;99.90
24049;DHT22;12250;50.956;4.746;2023-02-22T06:43:21;4.00;99.90
24049;DHT22;12250;50.956;4.746;2023-02-22T06:45:47;4.10;99.90
24049;DHT22;12250;50.956;4.746;2023-02-22T06:48:12;4.10;99.90
24049;DHT22;12250;50.956;4.746;2023-02-22T06:50:38;4.20;99.90
24049;DHT22;12250;50.956;4.746;2023-02-22T06:53:04;4.20;99.90
24049;DHT22;12250;50.956;4.746;2023-02-22T06:55:31;4.30;99.90
24049;DHT22;12250;50.956;4.746;2023-02-22T06:57:57;4.30;99.90
24049;DHT22;12250;50.956;4.746;2023-02-22T07:00:25;4.40;99.90
24049;DHT22;12250;50.956;4.746;2023-02-22T07:02:52;4.40;99.90
24049;DHT22;12250;50.956;4.746;2023-02-22T07:05:19;4.40;99.90
24049;DHT22;12250;50.956;4.746;2023-02-22T07:07:46;4.40;99.90
24049;DHT22;12250;50.956;4.746;2023-02-22T07:10:23;4.50;99.90
24049;DHT22;12250;50.956;4.746;2023-02-22T07:12:48;4.50;99.90
24049;DHT22;12250;50.956;4.746;2023-02-22T07:15:17;4.60;99.90
24049;DHT22;12250;50.956;4.746;2023-02-22T07:17:43;4.60;99.90
24049;DHT22;12250;50.956;4.746;2023-02-22T07:20:09;4.60;99.90
24049;DHT22;12250;50.956;4.746;2023-02-22T07:22:36;4.60;99.90
24049;DHT22;12250;50.956;4.746;2023-02-22T07:25:04;4.60;99.90
24049;DHT22;12250;50.956;4.746;2023-02-22T07:27:29;4.60;99.90
24049;DHT22;12250;50.956;4.746;2023-02-22T07:29:55;4.80;99.90
24049;DHT22;12250;50.956;4.746;2023-02-22T07:32:21;4.80;99.90
24049;DHT22;12250;50.956;4.746;2023-02-22T07:34:46;4.80;99.90
24049;DHT22;12250;50.956;4.746;2023-02-22T07:37:12;4.90;99.90
24049;DHT22;12250;50.956;4.746;2023-02-22T07:39:37;4.90;99.90
24049;DHT22;12250;50.956;4.746;2023-02-22T07:42:03;5.00;99.90
24049;DHT22;12250;50.956;4.746;2023-02-22T07:44:29;5.10;99.90
24049;DHT22;12250;50.956;4.746;2023-02-22T07:46:55;5.20;99.90
24049;DHT22;12250;50.956;4.746;2023-02-22T07:49:20;5.40;99.90
24049;DHT22;12250;50.956;4.746;2023-02-22T07:51:46;5.60;99.90
24049;DHT22;12250;50.956;4.746;2023-02-22T07:54:11;5.80;99.90
24049;DHT22;12250;50.956;4.746;2023-02-22T07:56:43;6.00;99.90
24049;DHT22;12250;50.956;4.746;2023-02-22T07:59:09;6.20;99.90
24049;DHT22;12250;50.956;4.746;2023-02-22T08:01:35;6.40;99.90
24049;DHT22;12250;50.956;4.746;2023-02-22T08:04:00;6.60;99.90
24049;DHT22;12250;50.956;4.746;2023-02-22T08:06:26;6.80;99.90
24049;DHT22;12250;50.956;4.746;2023-02-22T08:08:52;7.00;99.90
24049;DHT22;12250;50.956;4.746;2023-02-22T08:11:18;7.20;99.90
24049;DHT22;12250;50.956;4.746;2023-02-22T08:13:43;7.40;99.90
24049;DHT22;12250;50.956;4.746;2023-02-22T08:16:09;7.80;99.90
24049;DHT22;12250;50.956;4.746;2023-02-22T08:18:34;8.20;99.90
24049;DHT22;12250;50.956;4.746;2023-02-22T08:21:02;8.60;99.90
24049;DHT22;12250;50.956;4.746;2023-02-22T08:23:28;9.00;99.90
24049;DHT22;12250;50.956;4.746;2023-02-22T08:25:54;9.30;99.90
24049;DHT22;12250;50.956;4.746;2023-02-22T08:28:21;9.70;99.90
24049;DHT22;12250;50.956;4.746;2023-02-22T08:30:48;10.00;99.90
24049;DHT22;12250;50.956;4.746;2023-02-22T08:33:15;10.20;99.90
24049;DHT22;12250;50.956;4.746;2023-02-22T08:35:43;10.40;99.90
24049;DHT22;12250;50.956;4.746;2023-02-22T08:38:19;10.50;99.90
24049;DHT22;12250;50.956;4.746;2023-02-22T08:40:46;10.50;99.90
24049;DHT22;12250;50.956;4.746;2023-02-22T08:43:12;10.50;99.90
24049;DHT22;12250;50.956;4.746;2023-02-22T08:45:38;10.50;99.90
24049;DHT22;12250;50.956;4.746;2023-02-22T08:48:04;10.40;99.90
24049;DHT22;12250;50.956;4.746;2023-02-22T08:50:31;10.40;99.90
24049;DHT22;12250;50.956;4.746;2023-02-22T08:52:59;10.50;99.90
24049;DHT22;12250;50.956;4.746;2023-02-22T08:55:29;10.60;99.90
24049;DHT22;12250;50.956;4.746;2023-02-22T08:57:56;10.70;99.90
24049;DHT22;12250;50.956;4.746;2023-02-22T09:00:22;10.80;99.90
24049;DHT22;12250;50.956;4.746;2023-02-22T09:02:50;11.00;99.90
24049;DHT22;12250;50.956;4.746;2023-02-22T09:05:16;11.40;99.90
24049;DHT22;12250;50.956;4.746;2023-02-22T09:07:43;12.00;99.90
24049;DHT22;12250;50.956;4.746;2023-02-22T09:10:17;12.60;99.90
24049;DHT22;12250;50.956;4.746;2023-02-22T09:12:43;13.10;99.90
24049;DHT22;12250;50.956;4.746;2023-02-22T09:15:10;13.50;99.90
24049;DHT22;12250;50.956;4.746;2023-02-22T09:17:35;13.70;99.90
24049;DHT22;12250;50.956;4.746;2023-02-22T09:20:06;14.00;99.90
24049;DHT22;12250;50.956;4.746;2023-02-22T09:22:32;14.10;99.90
24049;DHT22;12250;50.956;4.746;2023-02-22T09:24:57;14.30;99.90
24049;DHT22;12250;50.956;4.746;2023-02-22T09:27:23;14.30;99.90
24049;DHT22;12250;50.956;4.746;2023-02-22T09:29:52;14.30;99.90
24049;DHT22;12250;50.956;4.746;2023-02-22T09:32:18;14.30;99.90
24049;DHT22;12250;50.956;4.746;2023-02-22T09:34:45;14.40;99.90
24049;DHT22;12250;50.956;4.746;2023-02-22T09:37:11;14.40;99.90
24049;DHT22;12250;50.956;4.746;2023-02-22T09:39:37;14.40;99.90
24049;DHT22;12250;50.956;4.746;2023-02-22T09:45:05;13.90;99.90
24049;DHT22;12250;50.956;4.746;2023-02-22T09:47:47;13.60;99.90
24049;DHT22;12250;50.956;4.746;2023-02-22T09:50:16;13.40;99.90
24049;DHT22;12250;50.956;4.746;2023-02-22T09:52:58;13.20;99.90
24049;DHT22;12250;50.956;4.746;2023-02-22T09:55:30;12.90;99.90
24049;DHT22;12250;50.956;4.746;2023-02-22T09:58:02;12.80;99.90
24049;DHT22;12250;50.956;4.746;2023-02-22T10:00:35;12.70;99.90
24049;DHT22;12250;50.956;4.746;2023-02-22T10:03:23;12.50;99.90
24049;DHT22;12250;50.956;4.746;2023-02-22T10:05:59;12.50;99.90
24049;DHT22;12250;50.956;4.746;2023-02-22T10:08:30;12.40;99.90
24049;DHT22;12250;50.956;4.746;2023-02-22T10:11:09;12.30;99.90
24049;DHT22;12250;50.956;4.746;2023-02-22T10:16:47;11.80;99.90
24049;DHT22;12250;50.956;4.746;2023-02-22T10:24:38;11.10;99.90
24049;DHT22;12250;50.956;4.746;2023-02-22T10:27:06;10.90;99.90
24049;DHT22;12250;50.956;4.746;2023-02-22T10:29:46;10.70;99.90
24049;DHT22;12250;50.956;4.746;2023-02-22T10:32:18;10.70;99.90
24049;DHT22;12250;50.956;4.746;2023-02-22T10:34:50;10.70;99.90
24049;DHT22;12250;50.956;4.746;2023-02-22T10:39:54;10.60;99.90
24049;DHT22;12250;50.956;4.746;2023-02-22T10:42:24;10.60;99.90
24049;DHT22;12250;50.956;4.746;2023-02-22T10:44:50;10.60;99.90
24049;DHT22;12250;50.956;4.746;2023-02-22T10:47:16;10.70;99.90
24049;DHT22;12250;50.956;4.746;2023-02-22T10:49:47;10.70;99.90
24049;DHT22;12250;50.956;4.746;2023-02-22T10:52:29;10.80;99.90
24049;DHT22;12250;50.956;4.746;2023-02-22T10:54:57;10.90;99.90
24049;DHT22;12250;50.956;4.746;2023-02-22T10:57:49;11.00;99.90
24049;DHT22;12250;50.956;4.746;2023-02-22T11:00:34;11.10;99.90
24049;DHT22;12250;50.956;4.746;2023-02-22T11:03:18;11.10;99.90
24049;DHT22;12250;50.956;4.746;2023-02-22T11:05:46;11.30;99.90
24049;DHT22;12250;50.956;4.746;2023-02-22T11:08:23;11.50;99.90
24049;DHT22;12250;50.956;4.746;2023-02-22T11:10:51;11.70;99.90
24049;DHT22;12250;50.956;4.746;2023-02-22T11:13:37;11.80;99.90
24049;DHT22;12250;50.956;4.746;2023-02-22T11:16:34;12.20;99.90
24049;DHT22;12250;50.956;4.746;2023-02-22T11:19:08;12.70;99.90
24049;DHT22;12250;50.956;4.746;2023-02-22T11:21:35;13.10;99.90
24049;DHT22;12250;50.956;4.746;2023-02-22T11:24:07;13.60;99.90
24049;DHT22;12250;50.956;4.746;2023-02-22T11:26:48;13.90;99.90
24049;DHT22;12250;50.956;4.746;2023-02-22T11:29:35;14.10;99.90
24049;DHT22;12250;50.956;4.746;2023-02-22T11:32:17;14.30;99.90
24049;DHT22;12250;50.956;4.746;2023-02-22T11:34:48;14.40;99.90
24049;DHT22;12250;50.956;4.746;2023-02-22T11:42:49;14.80;99.90
24049;DHT22;12250;50.956;4.746;2023-02-22T11:45:29;15.00;99.90
24049;DHT22;12250;50.956;4.746;2023-02-22T11:47:59;15.20;99.90
24049;DHT22;12250;50.956;4.746;2023-02-22T11:53:36;15.20;99.90
24049;DHT22;12250;50.956;4.746;2023-02-22T11:56:18;15.40;99.90
24049;DHT22;12250;50.956;4.746;2023-02-22T11:58:55;15.30;99.90
24049;DHT22;12250;50.956;4.746;2023-02-22T12:13:58;15.70;99.90
24049;DHT22;12250;50.956;4.746;2023-02-22T12:19:35;15.70;99.90
24049;DHT22;12250;50.956;4.746;2023-02-22T12:22:07;15.60;99.90
24049;DHT22;12250;50.956;4.746;2023-02-22T12:24:41;15.40;99.90
24049;DHT22;12250;50.956;4.746;2023-02-22T12:27:21;15.20;99.90
24049;DHT22;12250;50.956;4.746;2023-02-22T12:29:51;15.20;99.90
24049;DHT22;12250;50.956;4.746;2023-02-22T12:32:45;15.20;99.90
24049;DHT22;12250;50.956;4.746;2023-02-22T12:35:29;15.30;99.90
24049;DHT22;12250;50.956;4.746;2023-02-22T12:43:27;15.50;99.90
24049;DHT22;12250;50.956;4.746;2023-02-22T12:46:17;15.50;99.90
24049;DHT22;12250;50.956;4.746;2023-02-22T12:48:50;15.60;99.90
24049;DHT22;12250;50.956;4.746;2023-02-22T12:51:20;15.30;99.90
24049;DHT22;12250;50.956;4.746;2023-02-22T12:54:06;15.10;99.90
24049;DHT22;12250;50.956;4.746;2023-02-22T12:59:26;15.00;99.90
24049;DHT22;12250;50.956;4.746;2023-02-22T13:02:14;15.00;99.90
24049;DHT22;12250;50.956;4.746;2023-02-22T13:04:41;15.20;99.90
24049;DHT22;12250;50.956;4.746;2023-02-22T13:07:30;15.40;99.90
24049;DHT22;12250;50.956;4.746;2023-02-22T13:12:59;15.70;99.90
24049;DHT22;12250;50.956;4.746;2023-02-22T13:15:31;15.70;99.90
24049;DHT22;12250;50.956;4.746;2023-02-22T13:21:00;15.40;99.90
24049;DHT22;12250;50.956;4.746;2023-02-22T13:26:05;15.10;99.90
24049;DHT22;12250;50.956;4.746;2023-02-22T13:31:41;15.30;99.90
24049;DHT22;12250;50.956;4.746;2023-02-22T13:40:20;15.40;99.90
24049;DHT22;12250;50.956;4.746;2023-02-22T13:43:02;15.40;99.90
24049;DHT22;12250;50.956;4.746;2023-02-22T13:53:58;15.40;99.90
24049;DHT22;12250;50.956;4.746;2023-02-22T13:56:27;15.50;99.90
24049;DHT22;12250;50.956;4.746;2023-02-22T13:59:00;15.50;99.90
24049;DHT22;12250;50.956;4.746;2023-02-22T14:01:47;15.40;99.90
24049;DHT22;12250;50.956;4.746;2023-02-22T14:04:32;15.30;99.90
24049;DHT22;12250;50.956;4.746;2023-02-22T14:07:01;15.30;99.90
24049;DHT22;12250;50.956;4.746;2023-02-22T14:09:52;15.10;99.90
24049;DHT22;12250;50.956;4.746;2023-02-22T14:17:37;14.80;99.90
24049;DHT22;12250;50.956;4.746;2023-02-22T14:20:05;14.80;99.90
24049;DHT22;12250;50.956;4.746;2023-02-22T14:22:43;14.70;99.90
24049;DHT22;12250;50.956;4.746;2023-02-22T14:27:59;14.60;99.90
24049;DHT22;12250;50.956;4.746;2023-02-22T14:30:30;14.60;99.90
24049;DHT22;12250;50.956;4.746;2023-02-22T14:32:56;14.60;99.90
24049;DHT22;12250;50.956;4.746;2023-02-22T14:35:23;14.50;99.90
24049;DHT22;12250;50.956;4.746;2023-02-22T14:37:54;14.40;99.90
24049;DHT22;12250;50.956;4.746;2023-02-22T14:40:27;14.40;99.90
24049;DHT22;12250;50.956;4.746;2023-02-22T14:43:08;14.30;99.90
24049;DHT22;12250;50.956;4.746;2023-02-22T14:45:43;14.30;99.90
24049;DHT22;12250;50.956;4.746;2023-02-22T14:48:32;14.20;99.90
24049;DHT22;12250;50.956;4.746;2023-02-22T14:51:22;14.20;99.90
24049;DHT22;12250;50.956;4.746;2023-02-22T14:53:53;14.10;99.90
24049;DHT22;12250;50.956;4.746;2023-02-22T14:56:39;14.00;99.90
24049;DHT22;12250;50.956;4.746;2023-02-22T14:59:21;13.90;99.90
24049;DHT22;12250;50.956;4.746;2023-02-22T15:02:03;13.80;99.90
24049;DHT22;12250;50.956;4.746;2023-02-22T15:04:30;13.70;99.90
24049;DHT22;12250;50.956;4.746;2023-02-22T15:06:56;13.70;99.90
24049;DHT22;12250;50.956;4.746;2023-02-22T15:09:25;13.70;99.90
24049;DHT22;12250;50.956;4.746;2023-02-22T15:11:53;13.70;99.90
24049;DHT22;12250;50.956;4.746;2023-02-22T15:14:24;13.70;99.90
24049;DHT22;12250;50.956;4.746;2023-02-22T15:16:52;13.70;99.90
24049;DHT22;12250;50.956;4.746;2023-02-22T15:19:26;13.70;99.90
24049;DHT22;12250;50.956;4.746;2023-02-22T15:21:54;13.60;99.90
24049;DHT22;12250;50.956;4.746;2023-02-22T15:24:23;13.60;99.90
24049;DHT22;12250;50.956;4.746;2023-02-22T15:26:50;13.60;99.90
24049;DHT22;12250;50.956;4.746;2023-02-22T15:29:25;13.40;99.90
24049;DHT22;12250;50.956;4.746;2023-02-22T15:31:54;13.40;99.90
24049;DHT22;12250;50.956;4.746;2023-02-22T15:34:31;13.30;99.90
24049;DHT22;12250;50.956;4.746;2023-02-22T15:37:13;13.20;99.90
24049;DHT22;12250;50.956;4.746;2023-02-22T15:39:43;13.10;99.90
24049;DHT22;12250;50.956;4.746;2023-02-22T15:42:15;13.00;99.90
24049;DHT22;12250;50.956;4.746;2023-02-22T15:44:44;13.00;99.90
24049;DHT22;12250;50.956;4.746;2023-02-22T15:47:19;13.00;99.90
24049;DHT22;12250;50.956;4.746;2023-02-22T15:49:46;13.00;99.90
24049;DHT22;12250;50.956;4.746;2023-02-22T15:52:40;13.00;99.90
24049;DHT22;12250;50.956;4.746;2023-02-22T15:55:11;12.90;99.90
24049;DHT22;12250;50.956;4.746;2023-02-22T15:57:39;12.90;99.90
24049;DHT22;12250;50.956;4.746;2023-02-22T16:00:05;12.90;99.90
24049;DHT22;12250;50.956;4.746;2023-02-22T16:02:36;12.80;99.90
24049;DHT22;12250;50.956;4.746;2023-02-22T16:05:09;12.70;99.90
24049;DHT22;12250;50.956;4.746;2023-02-22T16:07:42;12.60;99.90
24049;DHT22;12250;50.956;4.746;2023-02-22T16:10:30;12.50;99.90
24049;DHT22;12250;50.956;4.746;2023-02-22T16:13:28;12.40;99.90
24049;DHT22;12250;50.956;4.746;2023-02-22T16:18:50;12.30;99.90
24049;DHT22;12250;50.956;4.746;2023-02-22T16:21:18;12.20;99.90
24049;DHT22;12250;50.956;4.746;2023-02-22T16:28:51;12.20;99.90
24049;DHT22;12250;50.956;4.746;2023-02-22T16:31:22;12.10;99.90
24049;DHT22;12250;50.956;4.746;2023-02-22T16:33:50;12.10;99.90
24049;DHT22;12250;50.956;4.746;2023-02-22T16:36:18;12.10;99.90
24049;DHT22;12250;50.956;4.746;2023-02-22T16:38:45;11.90;99.90
24049;DHT22;12250;50.956;4.746;2023-02-22T16:41:14;11.90;99.90
24049;DHT22;12250;50.956;4.746;2023-02-22T16:43:46;11.80;99.90
24049;DHT22;12250;50.956;4.746;2023-02-22T16:46:15;11.80;99.90
24049;DHT22;12250;50.956;4.746;2023-02-22T16:48:42;11.80;99.90
24049;DHT22;12250;50.956;4.746;2023-02-22T16:51:23;11.80;99.90
24049;DHT22;12250;50.956;4.746;2023-02-22T16:53:52;11.80;99.90
24049;DHT22;12250;50.956;4.746;2023-02-22T16:56:19;11.70;99.90
24049;DHT22;12250;50.956;4.746;2023-02-22T16:58:47;11.70;99.90
24049;DHT22;12250;50.956;4.746;2023-02-22T17:01:18;11.70;99.90
24049;DHT22;12250;50.956;4.746;2023-02-22T17:03:44;11.60;99.90
24049;DHT22;12250;50.956;4.746;2023-02-22T17:06:11;11.50;99.90
24049;DHT22;12250;50.956;4.746;2023-02-22T17:08:38;11.40;99.90
24049;DHT22;12250;50.956;4.746;2023-02-22T17:11:05;11.30;99.90
24049;DHT22;12250;50.956;4.746;2023-02-22T17:13:31;11.30;99.90
24049;DHT22;12250;50.956;4.746;2023-02-22T17:15:57;11.30;99.90
24049;DHT22;12250;50.956;4.746;2023-02-22T17:18:24;11.20;99.90
24049;DHT22;12250;50.956;4.746;2023-02-22T17:20:53;11.20;99.90
24049;DHT22;12250;50.956;4.746;2023-02-22T17:23:22;11.20;99.90
24049;DHT22;12250;50.956;4.746;2023-02-22T17:26:06;11.20;99.90
24049;DHT22;12250;50.956;4.746;2023-02-22T17:28:32;11.20;99.90
24049;DHT22;12250;50.956;4.746;2023-02-22T17:30:58;11.10;99.90
24049;DHT22;12250;50.956;4.746;2023-02-22T17:33:29;11.20;99.90
24049;DHT22;12250;50.956;4.746;2023-02-22T17:35:56;11.20;99.90
24049;DHT22;12250;50.956;4.746;2023-02-22T17:38:25;11.20;99.90
24049;DHT22;12250;50.956;4.746;2023-02-22T17:40:53;11.10;99.90
24049;DHT22;12250;50.956;4.746;2023-02-22T17:43:19;11.10;99.90
24049;DHT22;12250;50.956;4.746;2023-02-22T17:45:45;11.00;99.90
24049;DHT22;12250;50.956;4.746;2023-02-22T17:48:12;11.00;99.90
24049;DHT22;12250;50.956;4.746;2023-02-22T17:50:40;11.00;99.90
24049;DHT22;12250;50.956;4.746;2023-02-22T17:53:06;11.00;99.90
24049;DHT22;12250;50.956;4.746;2023-02-22T17:55:33;11.00;99.90
24049;DHT22;12250;50.956;4.746;2023-02-22T17:58:00;11.00;99.90
24049;DHT22;12250;50.956;4.746;2023-02-22T18:00:28;10.90;99.90